Time;durP1;ratioP1;P1;durP2;ratioP2;P2;SDS_P1;SDS_P2;PMS_P1;PMS_P2;Temp;Humidity;BMP_temperature;BMP_pressure;BME280_temperature;BME280_humidity;BME280_pressure;Samples;Min_cycle;Max_cycle;Signal;HPM_P1;HPM_P2
2024/03/05 00:00:44;;;;;;;21.10;13.85;;;9.50;76.20;;;;;;5095807;28;20193;-67
2024/03/05 00:03:11;;;;;;;22.58;14.70;;;9.40;76.30;;;;;;5081870;28;20604;-67
2024/03/05 00:05:38;;;;;;;21.85;14.82;;;9.50;76.70;;;;;;5074161;28;20652;-67
2024/03/05 00:08:06;;;;;;;25.00;16.25;;;9.50;76.20;;;;;;5075534;28;20672;-67
2024/03/05 00:10:33;;;;;;;25.35;15.45;;;9.50;76.20;;;;;;5075492;28;20244;-67
2024/03/05 00:13:00;;;;;;;24.33;14.88;;;9.50;76.40;;;;;;5075680;28;20194;-67
2024/03/05 00:15:30;;;;;;;28.42;15.60;;;9.50;76.20;;;;;;5075460;28;20190;-67
2024/03/05 00:17:57;;;;;;;21.35;15.90;;;9.60;76.20;;;;;;5075498;28;20201;-67
2024/03/05 00:20:24;;;;;;;21.92;14.52;;;9.50;75.80;;;;;;5075427;28;20190;-67
2024/03/05 00:22:52;;;;;;;25.38;15.65;;;9.50;76.00;;;;;;5074996;28;20226;-68
2024/03/05 00:25:19;;;;;;;25.80;16.60;;;9.50;76.20;;;;;;5075354;28;20202;-68
2024/03/05 00:27:48;;;;;;;24.90;14.80;;;9.50;76.40;;;;;;5075037;28;20198;-68
2024/03/05 00:30:15;;;;;;;27.08;17.20;;;9.50;76.30;;;;;;5075282;28;20186;-68
2024/03/05 00:32:44;;;;;;;24.95;17.02;;;9.50;76.20;;;;;;5075170;28;20190;-67
2024/03/05 00:35:12;;;;;;;26.38;15.82;;;9.50;76.00;;;;;;5074833;28;20195;-67
2024/03/05 00:37:39;;;;;;;28.45;17.40;;;9.40;76.60;;;;;;5075042;28;20197;-67
2024/03/05 00:40:08;;;;;;;25.50;15.18;;;9.30;77.00;;;;;;5075298;28;20283;-67
2024/03/05 00:42:35;;;;;;;25.90;15.15;;;9.30;77.70;;;;;;5074549;28;20249;-67
2024/03/05 00:45:06;;;;;;;25.98;15.38;;;9.30;77.90;;;;;;5075199;28;20293;-67
2024/03/05 00:47:33;;;;;;;32.47;19.25;;;9.30;77.90;;;;;;5075086;28;20186;-67
2024/03/05 00:50:03;;;;;;;24.85;16.67;;;9.40;77.90;;;;;;5074126;28;20182;-68
2024/03/05 00:52:30;;;;;;;29.08;17.40;;;9.40;77.90;;;;;;5074420;28;20663;-68
2024/03/05 00:54:58;;;;;;;24.88;17.23;;;9.40;77.70;;;;;;5074737;28;20194;-68
2024/03/05 00:57:25;;;;;;;28.05;16.13;;;9.40;77.70;;;;;;5074818;28;20559;-68
2024/03/05 00:59:53;;;;;;;27.95;17.35;;;9.30;78.00;;;;;;5073647;28;20191;-68
2024/03/05 01:02:20;;;;;;;30.88;17.80;;;9.30;78.30;;;;;;5074541;28;20343;-68
2024/03/05 01:04:47;;;;;;;23.75;14.82;;;9.40;78.30;;;;;;5074488;28;20676;-68
2024/03/05 01:07:16;;;;;;;25.45;18.20;;;9.40;78.30;;;;;;5074420;28;20316;-68
2024/03/05 01:09:44;;;;;;;27.67;16.42;;;9.40;78.10;;;;;;5074500;28;20190;-68
2024/03/05 01:12:11;;;;;;;24.98;16.73;;;9.40;78.10;;;;;;5073793;28;20245;-67
2024/03/05 01:14:38;;;;;;;24.67;15.50;;;9.40;78.30;;;;;;5073930;28;20206;-67
2024/03/05 01:17:05;;;;;;;21.33;15.57;;;9.40;78.10;;;;;;5074050;28;20602;-67
2024/03/05 01:19:32;;;;;;;25.92;17.23;;;9.50;77.90;;;;;;5073859;28;20186;-68
2024/03/05 01:21:58;;;;;;;28.45;17.13;;;9.50;78.00;;;;;;5073931;28;20282;-68
2024/03/05 01:24:27;;;;;;;26.77;15.67;;;9.50;78.00;;;;;;5073788;28;20297;-68
2024/03/05 01:26:58;;;;;;;25.63;15.23;;;9.50;77.80;;;;;;5092766;28;20427;-68
2024/03/05 01:29:25;;;;;;;22.73;15.05;;;9.50;77.80;;;;;;5094469;28;20265;-68
2024/03/05 01:31:56;;;;;;;29.00;17.15;;;9.50;77.80;;;;;;5094377;28;20189;-68
2024/03/05 01:34:24;;;;;;;26.88;15.15;;;9.50;77.70;;;;;;5094459;28;20534;-68
2024/03/05 01:36:56;;;;;;;33.45;17.80;;;9.50;78.30;;;;;;5094371;28;20189;-68
2024/03/05 01:39:27;;;;;;;28.15;16.88;;;9.40;78.10;;;;;;5093889;28;20260;-68
2024/03/05 01:41:55;;;;;;;27.60;17.70;;;9.40;78.40;;;;;;5094027;28;20189;-68
2024/03/05 01:44:22;;;;;;;30.00;17.00;;;9.40;78.90;;;;;;5093637;28;20229;-67
2024/03/05 01:46:51;;;;;;;30.38;17.45;;;9.40;79.00;;;;;;5094109;28;20292;-68
2024/03/05 01:49:19;;;;;;;31.20;16.80;;;9.40;78.90;;;;;;5094116;28;20216;-68
2024/03/05 01:51:47;;;;;;;26.30;17.83;;;9.40;79.00;;;;;;5094183;28;20246;-68
2024/03/05 01:54:19;;;;;;;35.53;18.20;;;9.40;79.00;;;;;;5078822;28;20191;-68
2024/03/05 01:56:52;;;;;;;26.85;17.05;;;9.40;79.00;;;;;;5074099;28;20244;-68
2024/03/05 01:59:19;;;;;;;28.52;16.50;;;9.40;79.00;;;;;;5073810;28;20274;-68
2024/03/05 02:01:47;;;;;;;22.45;15.32;;;9.40;79.30;;;;;;5073805;28;20272;-68
2024/03/05 02:04:15;;;;;;;22.73;14.55;;;9.40;79.40;;;;;;5073648;28;20269;-68
2024/03/05 02:06:43;;;;;;;27.13;17.15;;;9.40;79.60;;;;;;5073681;28;20198;-68
2024/03/05 02:09:13;;;;;;;26.13;16.30;;;9.40;79.70;;;;;;5089825;28;20250;-68
2024/03/05 02:11:40;;;;;;;24.27;15.43;;;9.40;79.80;;;;;;5093794;28;20239;-68
2024/03/05 02:14:09;;;;;;;22.30;15.18;;;9.40;80.00;;;;;;5083323;28;20251;-68
2024/03/05 02:16:36;;;;;;;24.13;15.57;;;9.50;80.00;;;;;;5073250;28;20641;-68
2024/03/05 02:19:04;;;;;;;28.80;16.25;;;9.40;80.00;;;;;;5073909;28;20226;-68
2024/03/05 02:21:32;;;;;;;24.67;15.65;;;9.50;80.10;;;;;;5073562;28;20186;-68
2024/03/05 02:24:00;;;;;;;29.50;16.38;;;9.50;79.60;;;;;;5073467;28;20213;-68
2024/03/05 02:26:29;;;;;;;32.33;19.08;;;9.50;79.00;;;;;;5073395;28;20198;-68
2024/03/05 02:28:57;;;;;;;28.58;17.15;;;9.40;79.70;;;;;;5086014;28;20186;-68
2024/03/05 02:31:25;;;;;;;28.55;17.95;;;9.40;80.10;;;;;;5088136;28;20193;-68
2024/03/05 02:33:53;;;;;;;29.10;17.63;;;9.40;80.10;;;;;;5077066;28;20186;-68
2024/03/05 02:36:23;;;;;;;23.83;14.60;;;9.40;80.40;;;;;;5077678;28;20194;-68
2024/03/05 02:38:55;;;;;;;30.95;17.85;;;9.30;80.60;;;;;;5077470;28;20194;-68
2024/03/05 02:41:22;;;;;;;27.80;17.08;;;9.20;81.00;;;;;;5077110;28;20224;-68
2024/03/05 02:43:49;;;;;;;25.58;15.60;;;9.20;81.50;;;;;;5088477;28;20307;-68
2024/03/05 02:46:16;;;;;;;23.85;15.95;;;9.30;81.40;;;;;;5097148;28;20242;-68
2024/03/05 02:48:44;;;;;;;27.05;17.80;;;9.30;81.10;;;;;;5097402;28;20272;-68
2024/03/05 02:51:11;;;;;;;30.55;16.45;;;9.30;81.00;;;;;;5097236;28;20189;-68
2024/03/05 02:53:38;;;;;;;31.33;16.55;;;9.20;81.30;;;;;;5097345;28;20242;-67
2024/03/05 02:56:09;;;;;;;26.10;16.73;;;9.20;81.50;;;;;;5096482;28;20213;-67
2024/03/05 02:58:37;;;;;;;30.92;17.10;;;9.30;81.30;;;;;;5094750;28;20235;-66
2024/03/05 03:01:07;;;;;;;26.77;17.02;;;9.20;81.50;;;;;;5076886;28;20228;-67
2024/03/05 03:03:35;;;;;;;34.83;19.05;;;9.20;82.00;;;;;;5087333;28;20223;-68
2024/03/05 03:06:03;;;;;;;30.00;17.45;;;9.20;82.30;;;;;;5096790;28;20246;-68
2024/03/05 03:08:30;;;;;;;28.23;16.88;;;9.20;82.60;;;;;;5096954;28;20193;-67
2024/03/05 03:10:57;;;;;;;33.47;18.00;;;9.20;82.80;;;;;;5096995;28;20280;-67
2024/03/05 03:13:25;;;;;;;32.65;17.77;;;9.30;82.80;;;;;;5096625;28;20643;-67
2024/03/05 03:15:52;;;;;;;28.67;16.70;;;9.30;82.60;;;;;;5096583;28;20236;-68
2024/03/05 03:18:20;;;;;;;28.73;17.42;;;9.30;82.70;;;;;;5096419;28;20306;-67
2024/03/05 03:20:47;;;;;;;28.92;18.85;;;9.30;82.70;;;;;;5096497;28;20204;-67
2024/03/05 03:23:14;;;;;;;25.90;17.05;;;9.40;82.60;;;;;;5095606;28;20233;-67
2024/03/05 03:25:41;;;;;;;27.55;16.98;;;9.40;82.40;;;;;;5096328;28;20255;-68
2024/03/05 03:28:08;;;;;;;25.63;15.45;;;9.30;81.90;;;;;;5096724;28;20221;-68
2024/03/05 03:30:37;;;;;;;24.02;16.23;;;9.40;82.30;;;;;;5096358;28;20190;-68
2024/03/05 03:33:05;;;;;;;25.15;14.07;;;9.30;81.90;;;;;;5078499;28;20193;-68
2024/03/05 03:35:32;;;;;;;27.05;16.73;;;9.30;82.20;;;;;;5076246;28;20612;-68
2024/03/05 03:38:00;;;;;;;27.55;15.35;;;9.30;82.20;;;;;;5075947;28;20225;-68
2024/03/05 03:40:33;;;;;;;27.08;15.77;;;9.40;81.90;;;;;;5075947;28;20199;-68
2024/03/05 03:43:00;;;;;;;26.45;17.58;;;9.40;81.80;;;;;;5076178;28;20226;-68
2024/03/05 03:45:27;;;;;;;28.85;16.40;;;9.40;81.80;;;;;;5095929;28;20209;-68
2024/03/05 03:47:55;;;;;;;26.63;16.00;;;9.40;82.00;;;;;;5096342;28;20189;-68
2024/03/05 03:50:23;;;;;;;30.42;17.65;;;9.40;82.10;;;;;;5096215;28;20243;-68
2024/03/05 03:52:53;;;;;;;27.45;17.17;;;9.40;82.20;;;;;;5095990;28;20201;-68
2024/03/05 03:55:21;;;;;;;30.88;19.45;;;9.40;81.90;;;;;;5095498;28;20680;-68
2024/03/05 03:57:48;;;;;;;29.92;16.30;;;9.40;82.00;;;;;;5096150;28;20238;-68
2024/03/05 04:00:18;;;;;;;27.55;17.25;;;9.40;81.80;;;;;;5096394;28;20196;-68
2024/03/05 04:02:46;;;;;;;32.35;17.95;;;9.40;82.00;;;;;;5095801;28;20194;-67
2024/03/05 04:05:15;;;;;;;30.25;18.25;;;9.40;81.70;;;;;;5095180;28;20301;-68
2024/03/05 04:07:42;;;;;;;27.65;18.13;;;9.30;81.90;;;;;;5096157;28;20227;-68
2024/03/05 04:10:10;;;;;;;32.33;18.90;;;9.40;81.70;;;;;;5095965;28;20640;-68
2024/03/05 04:12:38;;;;;;;28.20;17.35;;;9.40;82.10;;;;;;5095625;28;20232;-68
2024/03/05 04:15:07;;;;;;;25.90;18.63;;;9.30;82.30;;;;;;5079534;28;20232;-68
2024/03/05 04:17:36;;;;;;;30.38;20.20;;;9.30;82.60;;;;;;5075684;28;20202;-68
2024/03/05 04:20:10;;;;;;;28.90;20.92;;;9.30;82.70;;;;;;5075616;28;20593;-68
2024/03/05 04:22:40;;;;;;;33.00;17.38;;;9.30;82.70;;;;;;5075503;28;20595;-68
2024/03/05 04:25:08;;;;;;;30.58;19.05;;;9.40;82.80;;;;;;5075397;28;20551;-68
2024/03/05 04:27:41;;;;;;;32.33;18.33;;;9.30;82.70;;;;;;5075387;28;20186;-68
2024/03/05 04:30:10;;;;;;;30.50;18.83;;;9.30;83.10;;;;;;5075419;28;20526;-68
2024/03/05 04:32:40;;;;;;;34.28;19.85;;;9.30;83.10;;;;;;5074918;28;20209;-68
2024/03/05 04:35:11;;;;;;;30.45;18.08;;;9.30;83.40;;;;;;5090802;28;20238;-68
2024/03/05 04:37:41;;;;;;;36.05;21.70;;;9.20;83.60;;;;;;5095514;28;20184;-68
2024/03/05 04:40:10;;;;;;;30.23;17.92;;;9.20;83.90;;;;;;5095133;28;20708;-68
2024/03/05 04:42:39;;;;;;;30.92;17.70;;;9.30;84.10;;;;;;5094774;28;20300;-68
2024/03/05 04:45:07;;;;;;;30.73;18.00;;;9.30;84.10;;;;;;5078874;28;20201;-68
2024/03/05 04:47:34;;;;;;;32.45;19.35;;;9.30;84.00;;;;;;5074691;28;20225;-68
2024/03/05 04:50:01;;;;;;;35.38;17.40;;;9.30;83.90;;;;;;5074903;28;20194;-68
2024/03/05 04:52:28;;;;;;;30.98;18.25;;;9.20;83.90;;;;;;5074076;28;20226;-68
2024/03/05 04:55:01;;;;;;;32.13;19.65;;;9.30;84.00;;;;;;5087774;28;20243;-68
2024/03/05 04:57:28;;;;;;;26.80;17.25;;;9.30;83.90;;;;;;5094945;28;20178;-67
2024/03/05 04:59:55;;;;;;;26.35;16.05;;;9.30;83.70;;;;;;5094732;28;20189;-68
2024/03/05 05:02:22;;;;;;;28.30;17.80;;;9.30;83.50;;;;;;5094634;28;20644;-68
2024/03/05 05:04:50;;;;;;;27.75;15.90;;;9.30;83.30;;;;;;5094325;28;20256;-68
2024/03/05 05:07:21;;;;;;;28.38;18.00;;;9.30;82.90;;;;;;5095000;28;20236;-68
2024/03/05 05:09:49;;;;;;;30.30;17.08;;;9.30;82.30;;;;;;5095182;28;20174;-68
2024/03/05 05:12:17;;;;;;;30.00;17.80;;;9.30;82.20;;;;;;5094848;28;20185;-68
2024/03/05 05:14:44;;;;;;;30.30;17.00;;;9.30;82.20;;;;;;5094103;28;20276;-68
2024/03/05 05:17:15;;;;;;;32.03;18.90;;;9.20;82.20;;;;;;5094410;28;20281;-68
2024/03/05 05:19:43;;;;;;;28.42;17.50;;;9.20;82.60;;;;;;5094750;28;20178;-68
2024/03/05 05:22:10;;;;;;;31.88;17.08;;;9.10;83.00;;;;;;5094626;28;20196;-68
2024/03/05 05:24:38;;;;;;;32.60;19.00;;;9.10;83.50;;;;;;5093607;28;20259;-68
2024/03/05 05:27:05;;;;;;;29.88;16.88;;;9.00;83.80;;;;;;5094522;28;20250;-68
2024/03/05 05:29:35;;;;;;;29.85;16.60;;;9.00;83.90;;;;;;5094522;28;20258;-68
2024/03/05 05:32:05;;;;;;;38.25;17.90;;;9.00;84.00;;;;;;5094440;28;20185;-68
2024/03/05 05:34:32;;;;;;;30.88;17.35;;;9.00;84.30;;;;;;5093708;28;20272;-68
2024/03/05 05:36:59;;;;;;;30.75;18.27;;;9.00;84.50;;;;;;5094553;28;20189;-68
2024/03/05 05:39:26;;;;;;;30.33;19.30;;;9.00;84.90;;;;;;5093920;28;20720;-68
2024/03/05 05:41:54;;;;;;;32.50;18.50;;;9.00;85.20;;;;;;5091856;28;20190;-68
2024/03/05 05:44:21;;;;;;;33.38;19.90;;;9.00;85.40;;;;;;5072081;28;20762;-68
2024/03/05 05:46:49;;;;;;;26.50;18.35;;;9.00;85.50;;;;;;5070796;28;20194;-68
2024/03/05 05:49:19;;;;;;;31.73;19.80;;;9.10;85.60;;;;;;5072370;28;20193;-68
2024/03/05 05:51:46;;;;;;;30.77;18.25;;;9.10;84.60;;;;;;5072801;28;20192;-68
2024/03/05 05:54:13;;;;;;;27.40;16.92;;;9.10;84.30;;;;;;5072817;28;20702;-68
2024/03/05 05:56:41;;;;;;;35.65;21.65;;;9.10;84.30;;;;;;5072969;28;20190;-68
2024/03/05 05:59:09;;;;;;;29.10;18.33;;;9.10;84.60;;;;;;5072549;28;20706;-68
2024/03/05 06:01:37;;;;;;;29.35;15.70;;;9.10;84.90;;;;;;5073329;28;20524;-68
2024/03/05 06:04:06;;;;;;;30.67;19.52;;;9.10;85.30;;;;;;5072530;28;20196;-68
2024/03/05 06:06:33;;;;;;;29.77;19.55;;;9.10;85.80;;;;;;5073353;28;20297;-68
2024/03/05 06:09:08;;;;;;;32.28;20.05;;;9.10;86.30;;;;;;5072882;28;20531;-68
2024/03/05 06:11:36;;;;;;;31.33;18.70;;;9.10;86.00;;;;;;5072787;28;20205;-68
2024/03/05 06:14:03;;;;;;;33.92;19.55;;;9.20;86.00;;;;;;5072934;28;20189;-67
2024/03/05 06:16:31;;;;;;;27.27;17.63;;;9.20;86.00;;;;;;5072868;28;20613;-67
2024/03/05 06:18:59;;;;;;;37.40;22.08;;;9.20;86.40;;;;;;5072899;28;20652;-68
2024/03/05 06:21:27;;;;;;;37.65;22.35;;;9.20;86.50;;;;;;5073346;28;20194;-68
2024/03/05 06:23:59;;;;;;;36.60;21.95;;;9.20;86.50;;;;;;5073155;28;20198;-68
2024/03/05 06:26:39;;;;;;;33.72;20.60;;;9.20;86.60;;;;;;5073339;28;20213;-68
2024/03/05 06:29:09;;;;;;;35.40;21.08;;;9.20;86.60;;;;;;5073182;28;20276;-68
2024/03/05 06:31:38;;;;;;;35.72;21.20;;;9.20;87.10;;;;;;5072880;28;20201;-68
2024/03/05 06:34:10;;;;;;;39.03;23.17;;;9.20;86.90;;;;;;5072900;28;20198;-68
2024/03/05 06:36:39;;;;;;;39.80;22.67;;;9.20;87.30;;;;;;5072645;28;20269;-68
2024/03/05 06:39:18;;;;;;;32.50;21.98;;;9.10;86.90;;;;;;5072582;28;20263;-68
2024/03/05 06:41:48;;;;;;;33.13;23.00;;;9.20;87.20;;;;;;5072460;28;20178;-68
2024/03/05 06:44:20;;;;;;;33.05;19.75;;;9.20;87.10;;;;;;5072809;28;20256;-67
2024/03/05 06:46:48;;;;;;;31.00;18.38;;;9.20;87.30;;;;;;5071768;28;20216;-68
2024/03/05 06:49:20;;;;;;;32.45;19.65;;;9.20;87.30;;;;;;5089969;28;20189;-68
2024/03/05 06:51:56;;;;;;;38.42;22.35;;;9.20;87.40;;;;;;5078795;28;20182;-68
2024/03/05 06:57:12;;;;;;;37.53;23.42;;;9.20;88.00;;;;;;5071335;28;20607;-68
2024/03/05 06:59:50;;;;;;;35.85;22.77;;;9.10;88.00;;;;;;5072302;28;20265;-67
2024/03/05 07:02:18;;;;;;;30.48;18.25;;;9.20;88.30;;;;;;5071499;28;20190;-67
2024/03/05 07:05:03;;;;;;;35.15;19.80;;;9.20;87.90;;;;;;5071168;28;20190;-67
2024/03/05 07:07:33;;;;;;;36.00;20.58;;;9.30;87.90;;;;;;5053763;28;20190;-68
2024/03/05 07:10:14;;;;;;;36.25;21.73;;;9.30;87.70;;;;;;5089513;28;20232;-68
2024/03/05 07:12:44;;;;;;;32.90;19.92;;;9.30;87.50;;;;;;5080103;28;20281;-68
2024/03/05 07:15:14;;;;;;;39.47;21.75;;;9.20;87.80;;;;;;5074604;28;20648;-68
2024/03/05 07:17:42;;;;;;;30.45;18.23;;;9.20;88.00;;;;;;5075884;28;20603;-68
2024/03/05 07:20:18;;;;;;;29.27;18.95;;;9.20;88.20;;;;;;5075054;28;20187;-68
2024/03/05 07:22:47;;;;;;;34.22;21.05;;;9.20;88.20;;;;;;5074988;28;20643;-68
2024/03/05 07:25:15;;;;;;;32.80;19.90;;;9.20;88.60;;;;;;5075703;28;20210;-68
2024/03/05 07:27:44;;;;;;;37.88;21.27;;;9.20;88.80;;;;;;5073257;28;20197;-68
2024/03/05 07:30:15;;;;;;;38.67;22.17;;;9.20;89.40;;;;;;5084020;28;20197;-68
2024/03/05 07:32:47;;;;;;;34.60;20.05;;;9.30;89.90;;;;;;5093190;28;20181;-68
2024/03/05 07:35:14;;;;;;;31.77;20.17;;;9.30;89.80;;;;;;5075172;28;20194;-68
2024/03/05 07:37:44;;;;;;;37.40;20.88;;;9.30;89.60;;;;;;5078915;28;20238;-68
2024/03/05 07:40:17;;;;;;;33.00;19.75;;;9.40;90.00;;;;;;5076265;28;20265;-69
2024/03/05 07:42:48;;;;;;;35.42;19.25;;;9.40;89.80;;;;;;5074965;28;20218;-68
2024/03/05 07:45:16;;;;;;;36.15;23.65;;;9.40;89.80;;;;;;5078373;28;20233;-69
2024/03/05 07:47:44;;;;;;;35.22;22.02;;;9.40;89.40;;;;;;5080452;28;20251;-69
2024/03/05 07:50:15;;;;;;;28.40;18.92;;;9.50;89.30;;;;;;5085157;28;20636;-68
2024/03/05 07:52:53;;;;;;;31.33;19.67;;;9.50;89.40;;;;;;5095304;28;20582;-68
2024/03/05 07:55:22;;;;;;;29.65;19.85;;;9.50;89.40;;;;;;5087515;28;20209;-68
2024/03/05 07:57:52;;;;;;;29.23;18.77;;;9.60;89.40;;;;;;5074973;28;20269;-68
2024/03/05 08:00:21;;;;;;;34.53;20.45;;;9.60;89.00;;;;;;5073700;28;20659;-68
2024/03/05 08:02:50;;;;;;;37.40;20.00;;;9.60;89.10;;;;;;5073393;28;20186;-68
2024/03/05 08:05:18;;;;;;;34.45;20.35;;;9.60;89.30;;;;;;5074904;28;20494;-69
2024/03/05 08:07:46;;;;;;;34.60;20.92;;;9.60;89.30;;;;;;5074942;28;20202;-68
2024/03/05 08:10:16;;;;;;;37.83;21.17;;;9.70;89.50;;;;;;5075185;28;20221;-68
2024/03/05 08:12:46;;;;;;;33.35;20.77;;;9.70;89.10;;;;;;5074878;28;20204;-68
2024/03/05 08:15:15;;;;;;;33.38;21.70;;;9.70;89.40;;;;;;5074790;28;20175;-68
2024/03/05 08:17:45;;;;;;;34.10;20.80;;;9.70;89.40;;;;;;5075268;28;20276;-68
2024/03/05 08:20:14;;;;;;;36.38;21.80;;;9.70;89.70;;;;;;5074839;28;20226;-68
2024/03/05 08:22:41;;;;;;;33.30;20.42;;;9.80;89.80;;;;;;5074874;28;20233;-68
2024/03/05 08:25:10;;;;;;;30.40;20.00;;;9.80;89.50;;;;;;5074572;28;20199;-67
2024/03/05 08:27:38;;;;;;;33.67;20.40;;;9.80;89.30;;;;;;5074861;28;20273;-68
2024/03/05 08:30:09;;;;;;;37.10;23.80;;;9.80;89.70;;;;;;5075251;28;20272;-68
2024/03/05 08:32:36;;;;;;;34.97;21.77;;;9.80;88.90;;;;;;5074851;28;20185;-67
2024/03/05 08:35:04;;;;;;;32.53;21.05;;;9.80;89.10;;;;;;5074515;28;20694;-67
2024/03/05 08:37:32;;;;;;;31.23;19.83;;;9.80;90.00;;;;;;5074916;28;20225;-67
2024/03/05 08:39:59;;;;;;;30.90;19.27;;;9.80;89.80;;;;;;5074899;28;20243;-67
2024/03/05 08:42:26;;;;;;;31.08;20.02;;;9.90;90.00;;;;;;5074557;28;20263;-67
2024/03/05 08:44:53;;;;;;;34.97;20.38;;;10.00;88.40;;;;;;5074644;28;20182;-67
2024/03/05 08:47:25;;;;;;;35.28;19.00;;;10.00;87.80;;;;;;5074669;28;20638;-68
2024/03/05 08:49:52;;;;;;;33.08;21.10;;;10.00;87.30;;;;;;5074908;28;20233;-67
2024/03/05 08:52:20;;;;;;;31.90;19.85;;;10.00;87.70;;;;;;5074700;28;20212;-67
2024/03/05 08:54:47;;;;;;;31.70;19.83;;;10.10;87.20;;;;;;5074651;28;20205;-67
2024/03/05 08:57:14;;;;;;;30.52;19.33;;;10.10;87.70;;;;;;5074581;28;20221;-67
2024/03/05 08:59:41;;;;;;;32.88;22.33;;;10.20;88.00;;;;;;5074462;28;20327;-67
2024/03/05 09:02:07;;;;;;;32.10;18.30;;;10.20;87.70;;;;;;5074262;28;20190;-67
2024/03/05 09:04:36;;;;;;;30.13;20.55;;;10.30;87.40;;;;;;5074257;28;20279;-68
2024/03/05 09:07:03;;;;;;;29.52;21.05;;;10.30;87.00;;;;;;5074191;28;20304;-67
2024/03/05 09:09:30;;;;;;;31.20;17.70;;;10.30;87.10;;;;;;5074311;28;20270;-67
2024/03/05 09:11:57;;;;;;;35.60;18.75;;;10.40;87.10;;;;;;5074694;28;20193;-67
2024/03/05 09:14:25;;;;;;;28.92;18.00;;;10.40;86.80;;;;;;5073944;28;20226;-67
2024/03/05 09:16:53;;;;;;;32.72;19.92;;;10.40;86.20;;;;;;5073811;28;20202;-67
2024/03/05 09:19:21;;;;;;;35.55;22.45;;;10.40;86.00;;;;;;5074191;28;20192;-68
2024/03/05 09:21:50;;;;;;;32.40;18.48;;;10.40;86.70;;;;;;5073934;28;20209;-67
2024/03/05 09:24:17;;;;;;;29.17;19.52;;;10.40;85.90;;;;;;5073641;28;20248;-67
2024/03/05 09:26:44;;;;;;;32.70;17.80;;;10.40;84.80;;;;;;5073585;28;20672;-67
2024/03/05 09:29:13;;;;;;;26.75;17.75;;;10.40;85.40;;;;;;5073636;28;20194;-68
2024/03/05 09:31:40;;;;;;;28.40;17.83;;;10.40;85.80;;;;;;5073870;28;20208;-68
2024/03/05 09:34:07;;;;;;;34.05;21.42;;;10.50;86.50;;;;;;5073646;28;20277;-68
2024/03/05 09:36:34;;;;;;;28.48;17.60;;;10.50;86.60;;;;;;5073675;28;20237;-68
2024/03/05 09:39:09;;;;;;;32.22;17.83;;;10.60;86.70;;;;;;5073814;28;20305;-68
2024/03/05 09:41:41;;;;;;;28.35;19.08;;;10.70;86.40;;;;;;5073471;28;20268;-68
2024/03/05 09:44:09;;;;;;;24.25;16.10;;;10.70;86.80;;;;;;5073551;28;20312;-68
2024/03/05 09:46:37;;;;;;;34.73;19.80;;;10.80;86.80;;;;;;5073199;28;20666;-68
2024/03/05 09:49:10;;;;;;;28.92;20.38;;;10.90;86.60;;;;;;5073679;28;20428;-68
2024/03/05 09:51:39;;;;;;;29.10;19.80;;;11.00;86.90;;;;;;5073077;28;20189;-68
2024/03/05 09:54:10;;;;;;;28.65;17.83;;;11.00;87.30;;;;;;5073307;28;20493;-68
2024/03/05 09:56:42;;;;;;;28.25;17.83;;;11.10;87.30;;;;;;5073467;28;20616;-68
2024/03/05 09:59:19;;;;;;;24.37;16.30;;;11.20;87.10;;;;;;5073922;28;20186;-68
2024/03/05 10:01:49;;;;;;;25.70;17.63;;;11.30;87.70;;;;;;5073633;28;20432;-68
2024/03/05 10:04:17;;;;;;;27.93;17.53;;;11.40;87.30;;;;;;5073741;28;20280;-68
2024/03/05 10:06:46;;;;;;;27.47;19.13;;;11.50;86.60;;;;;;5073309;28;20525;-68
2024/03/05 10:09:14;;;;;;;28.67;18.37;;;11.60;86.70;;;;;;5073084;28;20914;-68
2024/03/05 10:11:42;;;;;;;28.07;19.37;;;11.70;86.80;;;;;;5073098;28;20520;-68
2024/03/05 10:14:14;;;;;;;29.70;17.67;;;11.80;86.20;;;;;;5073789;28;20534;-68
2024/03/05 10:16:48;;;;;;;25.90;19.00;;;11.90;85.80;;;;;;5073601;28;20452;-68
2024/03/05 10:19:16;;;;;;;24.20;16.10;;;12.00;84.80;;;;;;5073071;28;20451;-68
2024/03/05 10:21:44;;;;;;;25.80;17.27;;;12.10;83.60;;;;;;5073269;28;20431;-68
2024/03/05 10:24:13;;;;;;;25.97;18.73;;;12.10;82.60;;;;;;5072999;28;20466;-68
2024/03/05 10:26:43;;;;;;;26.50;17.27;;;12.10;82.30;;;;;;5072915;28;20965;-68
2024/03/05 10:29:11;;;;;;;23.43;16.93;;;12.20;81.50;;;;;;5073366;28;20796;-68
2024/03/05 10:31:40;;;;;;;27.13;16.33;;;12.30;79.60;;;;;;5072882;28;20436;-68
2024/03/05 10:34:07;;;;;;;22.80;14.60;;;12.30;77.90;;;;;;5072865;28;20478;-68
2024/03/05 10:36:38;;;;;;;23.90;15.27;;;12.30;74.90;;;;;;5072866;28;20432;-68
2024/03/05 10:39:06;;;;;;;24.23;16.77;;;12.40;73.10;;;;;;5073158;28;20416;-68
2024/03/05 10:41:34;;;;;;;22.17;15.73;;;12.30;73.40;;;;;;5073184;28;20471;-68
2024/03/05 10:44:04;;;;;;;23.80;14.60;;;12.40;74.20;;;;;;5073384;28;20940;-68
2024/03/05 10:46:33;;;;;;;22.03;15.77;;;12.40;75.30;;;;;;5073207;28;20511;-68
2024/03/05 10:49:02;;;;;;;22.50;13.77;;;12.50;75.80;;;;;;5073628;28;20923;-68
2024/03/05 10:51:31;;;;;;;20.93;15.97;;;12.50;76.20;;;;;;5077194;28;20785;-68
2024/03/05 10:54:02;;;;;;;24.53;16.37;;;12.60;76.40;;;;;;5077022;28;20518;-68
2024/03/05 10:56:30;;;;;;;29.00;18.40;;;12.60;76.10;;;;;;5077240;28;20416;-68
2024/03/05 11:01:44;;;;;;;24.40;15.20;;;12.80;75.60;;;;;;5076847;28;20402;-68
2024/03/05 11:04:20;;;;;;;23.90;16.03;;;12.80;75.10;;;;;;5076613;28;20432;-68
2024/03/05 11:06:52;;;;;;;24.27;15.80;;;12.80;74.50;;;;;;5076652;28;20466;-68
2024/03/05 11:09:21;;;;;;;23.73;13.90;;;12.90;73.40;;;;;;5076792;28;20432;-68
2024/03/05 11:11:54;;;;;;;20.63;13.00;;;13.00;72.50;;;;;;5075780;28;20471;-68
2024/03/05 11:14:25;;;;;;;26.03;15.40;;;13.00;71.30;;;;;;5076264;28;20420;-69
2024/03/05 11:17:09;;;;;;;21.53;12.60;;;13.00;71.00;;;;;;5076170;28;20424;-68
2024/03/05 11:19:37;;;;;;;20.83;14.13;;;13.00;70.80;;;;;;5076494;28;20424;-68
2024/03/05 11:22:22;;;;;;;18.77;12.90;;;13.10;69.50;;;;;;5076139;28;20456;-68
2024/03/05 11:25:01;;;;;;;18.50;13.60;;;13.10;67.70;;;;;;5076444;28;20477;-68
2024/03/05 11:27:30;;;;;;;19.33;14.60;;;13.10;68.10;;;;;;5076427;28;20879;-68
2024/03/05 11:30:07;;;;;;;21.20;14.30;;;13.00;67.60;;;;;;5076010;28;20471;-68
2024/03/05 11:32:37;;;;;;;18.23;12.00;;;13.00;67.00;;;;;;5076337;28;20457;-68
2024/03/05 11:35:05;;;;;;;20.00;12.57;;;13.00;66.00;;;;;;5075918;28;20431;-71
2024/03/05 11:37:47;;;;;;;17.63;13.07;;;13.00;65.10;;;;;;5075857;28;20911;-71
2024/03/05 11:40:16;;;;;;;19.03;11.47;;;13.00;64.00;;;;;;5076156;28;20814;-71
2024/03/05 11:42:46;;;;;;;17.57;11.20;;;13.00;63.40;;;;;;5076089;28;20802;-72
2024/03/05 11:45:48;;;;;;;15.80;10.83;;;13.00;63.60;;;;;;5075565;28;20519;-69
2024/03/05 11:48:18;;;;;;;16.40;11.10;;;13.00;64.10;;;;;;5073541;28;20471;-68
2024/03/05 11:50:46;;;;;;;15.20;10.63;;;13.00;63.20;;;;;;5075710;28;20464;-68
2024/03/05 11:53:13;;;;;;;14.90;9.07;;;13.00;62.50;;;;;;5075724;28;20536;-69
2024/03/05 11:55:40;;;;;;;16.10;10.07;;;13.00;61.90;;;;;;5075449;28;20783;-68
2024/03/05 11:58:10;;;;;;;14.20;8.70;;;13.00;61.60;;;;;;5075318;28;20447;-68
2024/03/05 12:00:37;;;;;;;16.80;9.93;;;13.00;61.50;;;;;;5075586;28;20429;-69
2024/03/05 12:03:06;;;;;;;12.53;8.90;;;13.00;61.00;;;;;;5074820;28;20509;-68
2024/03/05 12:05:34;;;;;;;13.47;9.23;;;13.00;60.70;;;;;;5075519;28;20483;-68
2024/03/05 12:08:03;;;;;;;14.70;9.80;;;13.10;60.60;;;;;;5075447;28;20503;-68
2024/03/05 12:10:34;;;;;;;14.63;9.10;;;13.10;60.70;;;;;;5075648;28;20497;-68
2024/03/05 12:13:01;;;;;;;17.90;9.70;;;13.10;60.10;;;;;;5075491;28;20769;-68
2024/03/05 12:15:30;;;;;;;13.47;8.37;;;13.00;59.80;;;;;;5075590;28;20782;-68
2024/03/05 12:17:59;;;;;;;16.10;8.63;;;13.00;59.20;;;;;;5075120;28;20444;-68
2024/03/05 12:20:34;;;;;;;13.60;9.10;;;13.00;59.40;;;;;;5074999;28;20472;-68
2024/03/05 12:23:03;;;;;;;11.27;8.10;;;12.90;59.60;;;;;;5075576;28;20420;-68
2024/03/05 12:25:30;;;;;;;12.90;7.30;;;12.90;59.00;;;;;;5075212;28;20432;-68
2024/03/05 12:28:00;;;;;;;14.27;9.57;;;12.90;59.10;;;;;;5074806;28;20472;-68
2024/03/05 12:30:35;;;;;;;11.70;8.50;;;12.90;59.50;;;;;;5074719;28;20423;-68
2024/03/05 12:33:04;;;;;;;10.93;7.70;;;12.90;59.90;;;;;;5075113;28;20451;-68
2024/03/05 12:35:32;;;;;;;8.73;6.90;;;12.90;59.50;;;;;;5075257;28;20485;-68
2024/03/05 12:38:05;;;;;;;13.17;8.17;;;12.90;58.80;;;;;;5075302;28;20778;-68
2024/03/05 12:40:37;;;;;;;8.90;7.03;;;12.90;58.20;;;;;;5074727;28;20566;-68
2024/03/05 12:43:08;;;;;;;10.50;7.43;;;12.90;57.50;;;;;;5074433;28;20491;-68
2024/03/05 12:45:36;;;;;;;10.60;6.90;;;12.80;57.70;;;;;;5073235;28;20448;-69
2024/03/05 12:48:05;;;;;;;7.80;6.27;;;12.80;57.60;;;;;;5074302;28;20503;-68
2024/03/05 12:50:32;;;;;;;10.20;6.40;;;12.70;57.80;;;;;;5074483;28;20823;-68